Time;durP1;ratioP1;P1;durP2;ratioP2;P2;SDS_P1;SDS_P2;PMS_P1;PMS_P2;Temp;Humidity;BMP_temperature;BMP_pressure;BME280_temperature;BME280_humidity;BME280_pressure;Samples;Min_cycle;Max_cycle;Signal;HPM_P1;HPM_P2
2022/06/17 00:00:47;;;;;;;3.73;2.70;;;20.00;1.00;;;;;;5050711;28;20430;-59
2022/06/17 00:03:13;;;;;;;5.80;2.73;;;19.90;1.00;;;;;;5051054;28;20449;-58
2022/06/17 00:05:39;;;;;;;3.13;2.27;;;19.90;1.00;;;;;;5050665;28;20442;-59
2022/06/17 00:08:10;;;;;;;6.90;3.00;;;20.00;1.00;;;;;;5052086;28;20184;-58
2022/06/17 00:10:36;;;;;;;3.97;3.23;;;20.10;1.00;;;;;;5062907;28;20465;-59
2022/06/17 00:13:03;;;;;;;3.60;2.90;;;20.00;1.00;;;;;;5071114;28;20430;-59
2022/06/17 00:15:29;;;;;;;3.30;2.57;;;19.90;1.00;;;;;;5071036;28;20200;-58
2022/06/17 00:17:54;;;;;;;3.07;2.60;;;19.90;1.00;;;;;;5071210;28;20433;-58
2022/06/17 00:20:23;;;;;;;3.97;3.03;;;19.80;1.00;;;;;;5070534;28;20207;-60
2022/06/17 00:22:49;;;;;;;4.53;3.20;;;19.80;1.00;;;;;;5051215;28;20192;-58
2022/06/17 00:25:17;;;;;;;3.37;2.47;;;19.70;1.00;;;;;;5050871;28;20431;-59
2022/06/17 00:27:43;;;;;;;3.60;2.97;;;19.70;1.00;;;;;;5051012;28;20445;-59
2022/06/17 00:30:16;;;;;;;4.97;3.10;;;19.70;1.00;;;;;;5050833;28;20458;-59
2022/06/17 00:32:42;;;;;;;3.60;2.63;;;19.60;1.00;;;;;;5050568;28;20571;-59
2022/06/17 00:35:08;;;;;;;4.63;2.90;;;19.60;1.00;;;;;;5065526;28;20506;-58
2022/06/17 00:37:34;;;;;;;3.13;2.70;;;19.50;1.00;;;;;;5069255;28;20219;-59
2022/06/17 00:39:59;;;;;;;3.57;2.57;;;19.50;1.00;;;;;;5070531;28;20429;-58
2022/06/17 00:42:26;;;;;;;3.50;2.60;;;19.40;1.00;;;;;;5070472;28;20632;-58
2022/06/17 00:44:58;;;;;;;3.50;2.30;;;19.50;1.00;;;;;;5070635;28;20560;-59
2022/06/17 00:47:32;;;;;;;3.37;3.03;;;19.40;1.00;;;;;;5070826;28;20461;-57
2022/06/17 00:50:28;;;;;;;4.37;2.50;;;19.40;1.00;;;;;;5070257;28;20473;-59
2022/06/17 00:52:53;;;;;;;2.83;2.20;;;19.40;1.00;;;;;;5063326;28;20450;-59
2022/06/17 00:55:24;;;;;;;2.33;2.13;;;19.40;1.00;;;;;;5050598;28;20427;-59
2022/06/17 00:57:50;;;;;;;2.47;2.27;;;19.30;1.00;;;;;;5050211;28;20212;-58
2022/06/17 01:00:17;;;;;;;3.90;2.57;;;19.20;1.00;;;;;;5049772;28;21054;-59
2022/06/17 01:02:48;;;;;;;3.33;2.50;;;19.10;1.00;;;;;;5055837;28;20207;-59
2022/06/17 01:05:16;;;;;;;3.23;2.40;;;19.10;1.00;;;;;;5070339;28;20839;-59
2022/06/17 01:07:47;;;;;;;3.07;2.77;;;19.10;1.00;;;;;;5069976;28;20791;-59
2022/06/17 01:10:15;;;;;;;2.83;2.57;;;19.00;1.00;;;;;;5069646;28;20510;-58
2022/06/17 01:12:44;;;;;;;2.77;2.20;;;19.00;1.00;;;;;;5069951;28;20434;-55
2022/06/17 01:15:16;;;;;;;6.00;2.43;;;19.10;1.00;;;;;;5070182;28;20487;-57
2022/06/17 01:17:42;;;;;;;4.10;2.53;;;19.10;1.00;;;;;;5070028;28;20441;-55
2022/06/17 01:20:11;;;;;;;3.27;2.40;;;19.10;1.00;;;;;;5069950;28;20445;-55
2022/06/17 01:22:44;;;;;;;3.27;2.20;;;19.00;1.00;;;;;;5069925;28;20532;-56
2022/06/17 01:25:15;;;;;;;2.90;2.30;;;19.00;1.00;;;;;;5069534;28;20426;-55
2022/06/17 01:27:47;;;;;;;2.60;2.40;;;19.00;1.00;;;;;;5070041;28;20474;-55
2022/06/17 01:30:16;;;;;;;3.33;3.00;;;18.90;1.00;;;;;;5069608;28;20471;-55
2022/06/17 01:32:58;;;;;;;2.27;2.07;;;18.90;1.00;;;;;;5061992;28;20477;-54
2022/06/17 01:35:28;;;;;;;3.67;2.57;;;18.80;1.00;;;;;;5049301;28;20447;-56
2022/06/17 01:37:55;;;;;;;3.20;2.33;;;18.80;1.00;;;;;;5050049;28;20492;-54
2022/06/17 01:40:21;;;;;;;2.60;2.40;;;18.80;1.00;;;;;;5053776;28;20516;-53
2022/06/17 01:42:48;;;;;;;5.10;2.80;;;18.70;1.00;;;;;;5053752;28;20902;-55
2022/06/17 01:45:14;;;;;;;3.07;2.80;;;18.60;1.00;;;;;;5053743;28;20465;-53
2022/06/17 01:47:44;;;;;;;2.90;2.43;;;18.60;1.00;;;;;;5053748;28;20553;-56
2022/06/17 01:50:19;;;;;;;2.57;2.37;;;18.60;1.00;;;;;;5053464;28;20482;-55
2022/06/17 01:52:57;;;;;;;2.43;2.23;;;18.60;1.00;;;;;;5051534;28;20488;-54
2022/06/17 01:55:41;;;;;;;3.67;2.80;;;18.70;1.00;;;;;;5053978;28;20441;-55
2022/06/17 01:58:23;;;;;;;3.17;2.40;;;18.70;1.00;;;;;;5053569;28;20484;-56
2022/06/17 02:00:49;;;;;;;2.03;1.93;;;18.70;1.00;;;;;;5053630;28;20811;-53
2022/06/17 02:03:42;;;;;;;2.77;2.50;;;18.70;1.00;;;;;;5053402;28;20469;-55
2022/06/17 02:06:10;;;;;;;3.70;2.90;;;18.60;1.00;;;;;;5053094;28;20182;-54
2022/06/17 02:08:37;;;;;;;2.90;2.23;;;18.60;1.00;;;;;;5050506;28;20438;-56
2022/06/17 02:11:11;;;;;;;5.77;2.60;;;18.50;1.00;;;;;;5064933;28;20682;-53
2022/06/17 02:13:36;;;;;;;3.93;2.00;;;18.70;1.00;;;;;;5073339;28;20464;-54
2022/06/17 02:16:08;;;;;;;2.40;2.20;;;18.70;1.00;;;;;;5073137;28;20425;-56
2022/06/17 02:18:34;;;;;;;4.47;2.63;;;18.60;1.00;;;;;;5060241;28;20180;-54
2022/06/17 02:21:07;;;;;;;2.50;2.30;;;18.60;1.00;;;;;;5053054;28;20453;-53
2022/06/17 02:23:34;;;;;;;3.37;2.20;;;18.60;1.00;;;;;;5052518;28;20438;-56
2022/06/17 02:26:01;;;;;;;3.67;2.77;;;18.50;1.00;;;;;;5053077;28;20838;-55
2022/06/17 02:28:29;;;;;;;4.43;2.77;;;18.50;1.00;;;;;;5053030;28;20950;-54
2022/06/17 02:30:56;;;;;;;2.93;2.33;;;18.60;1.00;;;;;;5053077;28;20427;-55
2022/06/17 02:33:23;;;;;;;4.23;2.33;;;18.50;1.00;;;;;;5058341;28;21008;-56
2022/06/17 02:35:57;;;;;;;3.47;2.60;;;18.40;1.00;;;;;;5052962;28;20804;-54
2022/06/17 02:38:27;;;;;;;3.57;2.80;;;18.40;1.00;;;;;;5052652;28;20462;-55
2022/06/17 02:40:56;;;;;;;3.93;2.90;;;18.30;1.00;;;;;;5053112;28;20465;-57
2022/06/17 02:43:26;;;;;;;3.17;2.23;;;18.20;1.00;;;;;;5052622;28;20457;-55
2022/06/17 02:45:58;;;;;;;4.20;2.60;;;18.20;1.00;;;;;;5052601;28;20450;-54
2022/06/17 02:48:26;;;;;;;2.60;2.40;;;18.20;1.00;;;;;;5051669;28;20445;-52
2022/06/17 02:50:55;;;;;;;2.80;2.30;;;18.10;1.00;;;;;;5052096;28;20509;-56
2022/06/17 02:53:27;;;;;;;3.83;2.40;;;18.10;1.00;;;;;;5052393;28;20450;-54
2022/06/17 02:55:55;;;;;;;2.37;2.13;;;18.10;1.00;;;;;;5068563;28;20465;-53
2022/06/17 02:58:41;;;;;;;4.30;2.17;;;18.10;1.00;;;;;;5070680;28;20442;-56
2022/06/17 03:01:27;;;;;;;3.33;1.97;;;18.00;1.00;;;;;;5051174;28;20430;-59
2022/06/17 03:03:55;;;;;;;2.30;1.93;;;17.90;1.00;;;;;;5051989;28;20446;-59
2022/06/17 03:06:36;;;;;;;2.27;2.07;;;17.90;1.00;;;;;;5051109;28;20465;-58
2022/06/17 03:09:24;;;;;;;2.63;2.40;;;18.00;1.00;;;;;;5051643;28;20466;-59
2022/06/17 03:11:58;;;;;;;2.57;2.27;;;17.90;1.00;;;;;;5052310;28;20441;-58
2022/06/17 03:14:28;;;;;;;2.90;2.57;;;17.80;1.00;;;;;;5052558;28;20999;-58
2022/06/17 03:16:58;;;;;;;3.07;2.00;;;17.80;1.00;;;;;;5052144;28;20525;-58
2022/06/17 03:19:25;;;;;;;2.90;2.20;;;17.80;1.00;;;;;;5056906;28;20487;-56
2022/06/17 03:21:51;;;;;;;2.60;2.20;;;17.80;1.00;;;;;;5071599;28;20486;-54
2022/06/17 03:24:20;;;;;;;2.63;2.40;;;17.80;1.00;;;;;;5058926;28;20485;-54
2022/06/17 03:27:31;;;;;;;4.43;2.53;;;17.80;1.00;;;;;;5051978;28;20305;-56
2022/06/17 03:30:00;;;;;;;2.60;2.33;;;18.10;1.00;;;;;;5027978;28;20466;-55
2022/06/17 03:32:35;;;;;;;3.63;2.23;;;18.20;1.00;;;;;;5049175;28;20468;-54
2022/06/17 03:35:01;;;;;;;3.27;2.60;;;18.60;1.00;;;;;;5057779;28;20764;-55
2022/06/17 03:37:38;;;;;;;2.30;2.10;;;18.80;1.00;;;;;;5051729;28;20438;-54
2022/06/17 03:40:20;;;;;;;3.07;1.80;;;19.20;1.00;;;;;;5059409;28;20490;-54
2022/06/17 03:43:44;;;;;;;3.60;2.87;;;19.30;1.00;;;;;;5071647;28;20516;-54
2022/06/17 03:46:11;;;;;;;2.70;2.10;;;19.70;1.00;;;;;;5048955;28;20477;-55
2022/06/17 03:48:40;;;;;;;2.73;2.20;;;19.70;1.00;;;;;;5048765;28;20447;-54
2022/06/17 03:51:13;;;;;;;2.47;2.20;;;19.80;1.00;;;;;;5045602;28;20885;-55
2022/06/17 03:53:42;;;;;;;3.90;2.57;;;19.80;1.00;;;;;;5065591;28;20473;-52
2022/06/17 03:56:16;;;;;;;4.33;2.50;;;19.60;1.00;;;;;;5067274;28;20456;-54
2022/06/17 03:58:43;;;;;;;3.20;2.20;;;19.40;1.00;;;;;;5071342;28;20450;-55
2022/06/17 04:01:42;;;;;;;4.40;2.20;;;19.30;1.00;;;;;;5055615;28;20832;-55
2022/06/17 04:04:29;;;;;;;3.30;2.27;;;19.00;1.00;;;;;;5050418;28;20572;-55
2022/06/17 04:06:56;;;;;;;2.70;2.50;;;18.70;1.00;;;;;;5065548;28;20429;-54
2022/06/17 04:09:25;;;;;;;5.10;2.80;;;18.50;1.00;;;;;;5070863;28;20457;-53
2022/06/17 04:11:57;;;;;;;2.93;2.63;;;18.50;1.00;;;;;;5064642;28;20881;-53
2022/06/17 04:14:47;;;;;;;3.53;2.97;;;18.20;1.00;;;;;;5051052;28;20442;-54
2022/06/17 04:17:36;;;;;;;3.43;2.77;;;18.20;1.00;;;;;;5051050;28;20569;-55
2022/06/17 04:20:23;;;;;;;7.20;2.93;;;18.30;1.00;;;;;;5050620;28;20438;-53
2022/06/17 04:22:53;;;;;;;8.50;2.50;;;18.20;1.00;;;;;;5050549;28;20442;-56
2022/06/17 04:25:42;;;;;;;3.70;2.67;;;18.20;1.00;;;;;;5050940;28;21020;-53
2022/06/17 04:28:12;;;;;;;4.80;2.53;;;18.30;1.00;;;;;;5065368;28;20473;-53
2022/06/17 04:30:44;;;;;;;3.53;2.93;;;18.20;1.00;;;;;;5070220;28;20461;-54
2022/06/17 04:33:31;;;;;;;4.27;2.87;;;18.20;1.00;;;;;;5055757;28;20940;-55
2022/06/17 04:36:23;;;;;;;3.23;2.30;;;18.30;1.00;;;;;;5050539;28;20438;-54
2022/06/17 04:38:54;;;;;;;3.90;2.77;;;18.20;1.00;;;;;;5050386;28;20466;-54
2022/06/17 04:41:23;;;;;;;2.83;2.20;;;18.20;1.00;;;;;;5050364;28;20615;-54
2022/06/17 04:43:53;;;;;;;6.50;2.33;;;18.30;1.00;;;;;;5050235;28;20434;-52
2022/06/17 04:46:38;;;;;;;3.40;2.40;;;18.30;1.00;;;;;;5050540;28;20793;-56
2022/06/17 04:49:17;;;;;;;4.13;2.20;;;18.50;1.00;;;;;;5053031;28;20461;-53
2022/06/17 04:51:42;;;;;;;3.97;2.10;;;18.60;1.00;;;;;;5062234;28;20460;-55
2022/06/17 04:54:11;;;;;;;5.83;2.60;;;18.70;1.00;;;;;;5062030;28;20946;-54
2022/06/17 04:56:45;;;;;;;6.57;2.80;;;18.70;1.00;;;;;;5070039;28;20207;-54
2022/06/17 04:59:35;;;;;;;4.30;2.50;;;18.70;1.00;;;;;;5069927;28;20441;-52
2022/06/17 05:02:05;;;;;;;3.77;2.47;;;18.80;1.00;;;;;;5066971;28;20949;-54
2022/06/17 05:04:31;;;;;;;4.13;2.00;;;18.90;1.00;;;;;;5050060;28;20521;-56
2022/06/17 05:06:57;;;;;;;4.53;2.30;;;18.90;1.00;;;;;;5057478;28;20591;-53
2022/06/17 05:09:37;;;;;;;7.63;2.20;;;18.90;1.00;;;;;;5069814;28;20218;-53
2022/06/17 05:12:18;;;;;;;2.90;1.83;;;18.90;1.00;;;;;;5059358;28;20176;-54
2022/06/17 05:14:52;;;;;;;4.37;2.33;;;19.00;1.00;;;;;;5047937;28;20441;-53
2022/06/17 05:17:18;;;;;;;2.40;2.00;;;19.00;1.00;;;;;;5048081;28;20455;-53
2022/06/17 05:19:44;;;;;;;4.17;2.30;;;19.10;1.00;;;;;;5063183;28;20521;-54
2022/06/17 05:22:26;;;;;;;2.40;2.20;;;19.20;1.00;;;;;;5069506;28;20536;-54
2022/06/17 05:24:53;;;;;;;3.93;2.13;;;19.10;1.00;;;;;;5069606;28;20239;-55
2022/06/17 05:27:18;;;;;;;2.60;2.07;;;19.30;1.00;;;;;;5069519;28;20441;-54
2022/06/17 05:29:44;;;;;;;4.33;2.00;;;19.50;1.00;;;;;;5069725;28;20463;-54
2022/06/17 05:32:17;;;;;;;7.00;2.30;;;19.60;1.00;;;;;;5061067;28;20317;-54
2022/06/17 05:34:42;;;;;;;4.50;2.33;;;19.70;1.00;;;;;;5061958;28;20187;-56
2022/06/17 05:37:08;;;;;;;2.43;2.03;;;19.80;1.00;;;;;;5069630;28;20525;-55
2022/06/17 05:39:34;;;;;;;4.00;2.40;;;20.10;1.00;;;;;;5069547;28;20194;-55
2022/06/17 05:41:59;;;;;;;2.70;1.90;;;20.20;1.00;;;;;;5069650;28;20183;-53
2022/06/17 05:44:26;;;;;;;2.00;1.80;;;20.40;1.00;;;;;;5067036;28;20664;-52
2022/06/17 05:46:51;;;;;;;4.13;1.77;;;20.40;1.00;;;;;;5049652;28;20191;-55
2022/06/17 05:49:17;;;;;;;2.70;2.33;;;20.40;1.00;;;;;;5057035;28;20509;-54
2022/06/17 05:51:42;;;;;;;4.60;2.20;;;20.40;1.00;;;;;;5069589;28;20218;-55
2022/06/17 05:54:08;;;;;;;2.50;2.10;;;20.50;1.00;;;;;;5055056;28;20184;-55
2022/06/17 05:56:33;;;;;;;4.80;2.40;;;20.80;1.00;;;;;;5049193;28;20658;-55
2022/06/17 05:58:59;;;;;;;4.40;1.87;;;20.60;1.00;;;;;;5049520;28;20234;-52
2022/06/17 06:01:24;;;;;;;5.57;1.97;;;20.50;1.00;;;;;;5048947;28;20196;-54
2022/06/17 06:03:50;;;;;;;4.50;2.33;;;20.50;1.00;;;;;;5049011;28;20242;-56
2022/06/17 06:06:16;;;;;;;3.40;2.10;;;20.40;1.00;;;;;;5057857;28;20191;-54
2022/06/17 06:08:41;;;;;;;3.40;2.17;;;20.60;1.00;;;;;;5068935;28;20195;-52
2022/06/17 06:11:07;;;;;;;6.10;2.03;;;21.00;1.00;;;;;;5069416;28;20562;-56
2022/06/17 06:13:33;;;;;;;5.57;1.90;;;20.90;1.00;;;;;;5068809;28;20282;-54
2022/06/17 06:16:01;;;;;;;4.40;1.70;;;21.00;1.00;;;;;;5069533;28;20521;-55
2022/06/17 06:18:31;;;;;;;2.20;1.80;;;20.90;1.00;;;;;;5068860;28;20187;-56
2022/06/17 06:20:56;;;;;;;3.33;1.80;;;21.00;1.00;;;;;;5069131;28;20434;-55
2022/06/17 06:23:23;;;;;;;1.90;1.80;;;21.20;1.00;;;;;;5070428;28;20506;-56
2022/06/17 06:25:49;;;;;;;2.40;1.30;;;21.20;1.00;;;;;;5072573;28;20203;-52
2022/06/17 06:28:20;;;;;;;1.77;1.60;;;21.20;1.00;;;;;;5072459;28;20914;-55
2022/06/17 06:31:09;;;;;;;3.87;2.20;;;21.20;1.00;;;;;;5072074;28;20679;-54
2022/06/17 06:33:35;;;;;;;1.70;1.60;;;21.60;1.00;;;;;;5062781;28;20439;-54
2022/06/17 06:36:00;;;;;;;4.83;2.53;;;21.80;1.00;;;;;;5072864;28;20537;-54
2022/06/17 06:38:26;;;;;;;2.97;1.80;;;22.00;1.00;;;;;;5072368;28;20187;-55
2022/06/17 06:40:52;;;;;;;4.20;2.07;;;22.20;1.00;;;;;;5069607;28;20191;-54
2022/06/17 06:43:20;;;;;;;3.20;2.10;;;22.00;1.00;;;;;;5051074;28;20565;-55
2022/06/17 06:45:49;;;;;;;5.13;2.10;;;21.90;1.00;;;;;;5066550;28;20573;-54
2022/06/17 06:48:17;;;;;;;3.27;1.70;;;21.80;1.00;;;;;;5072331;28;20922;-55
2022/06/17 06:50:43;;;;;;;3.30;1.57;;;21.80;1.00;;;;;;5072309;28;20477;-55
2022/06/17 06:53:09;;;;;;;3.97;1.80;;;21.90;1.00;;;;;;5072178;28;20457;-56
2022/06/17 06:55:36;;;;;;;2.23;1.60;;;22.00;1.00;;;;;;5072329;28;20196;-54
2022/06/17 06:58:09;;;;;;;4.40;2.10;;;22.10;1.00;;;;;;5072159;28;20791;-54
2022/06/17 07:00:38;;;;;;;3.50;2.20;;;22.30;1.00;;;;;;5061941;28;20450;-54
2022/06/17 07:03:04;;;;;;;2.13;1.93;;;22.30;1.00;;;;;;5051818;28;20525;-53
2022/06/17 07:05:31;;;;;;;2.70;1.97;;;22.30;1.00;;;;;;5049232;28;20874;-54
2022/06/17 07:07:57;;;;;;;1.93;1.50;;;22.40;1.00;;;;;;5051261;28;20479;-53
2022/06/17 07:10:25;;;;;;;2.33;1.63;;;22.50;1.00;;;;;;5052059;28;20474;-53
2022/06/17 07:12:52;;;;;;;2.20;2.10;;;22.40;1.00;;;;;;5052092;28;20188;-54
2022/06/17 07:15:18;;;;;;;2.93;2.27;;;22.50;1.00;;;;;;5051940;28;20963;-56
2022/06/17 07:18:03;;;;;;;3.40;2.30;;;22.70;1.00;;;;;;5059661;28;20466;-53
2022/06/17 07:20:37;;;;;;;5.77;1.90;;;22.80;1.00;;;;;;5071845;28;20840;-55
2022/06/17 07:23:07;;;;;;;3.03;2.00;;;22.70;1.00;;;;;;5071519;28;20531;-55
2022/06/17 07:25:33;;;;;;;2.77;2.03;;;23.10;1.00;;;;;;5071697;28;20434;-55
2022/06/17 07:28:00;;;;;;;4.03;2.10;;;23.20;1.00;;;;;;5071315;28;20434;-55
2022/06/17 07:30:27;;;;;;;4.30;2.00;;;23.00;1.00;;;;;;5065316;28;20869;-54
2022/06/17 07:32:53;;;;;;;3.50;1.90;;;23.10;1.00;;;;;;5051190;28;20530;-54
2022/06/17 07:35:19;;;;;;;2.27;2.07;;;23.30;1.00;;;;;;5050637;28;20525;-57
2022/06/17 07:40:30;;;;;;;6.70;3.13;;;22.90;1.00;;;;;;5051732;28;20261;-55
2022/06/17 07:42:57;;;;;;;3.10;2.07;;;22.70;1.00;;;;;;5050301;28;20443;-55
2022/06/17 07:45:24;;;;;;;1.97;1.67;;;22.80;1.00;;;;;;5060708;28;20503;-55
2022/06/17 07:47:50;;;;;;;3.77;2.10;;;23.00;1.00;;;;;;5071196;28;20915;-55
2022/06/17 07:50:21;;;;;;;1.93;1.70;;;23.20;1.00;;;;;;5070663;28;21416;-53
2022/06/17 07:52:47;;;;;;;2.43;1.80;;;23.00;1.00;;;;;;5058692;28;20440;-53
2022/06/17 07:55:13;;;;;;;2.07;1.70;;;23.20;1.00;;;;;;5046074;28;20492;-53
2022/06/17 07:57:39;;;;;;;3.87;1.60;;;23.20;1.00;;;;;;5051234;28;20449;-54
2022/06/17 08:00:07;;;;;;;3.03;1.83;;;23.40;1.00;;;;;;5051361;28;20808;-56
2022/06/17 08:02:33;;;;;;;2.30;1.67;;;23.20;1.00;;;;;;5060419;28;20187;-54
2022/06/17 08:04:58;;;;;;;1.90;1.60;;;23.20;1.00;;;;;;5071211;28;20434;-54
2022/06/17 08:07:24;;;;;;;3.07;2.50;;;22.80;1.00;;;;;;5051335;28;20191;-54
2022/06/17 08:09:49;;;;;;;2.33;1.87;;;22.70;1.00;;;;;;5065736;28;20321;-56
2022/06/17 08:12:15;;;;;;;2.00;1.53;;;22.80;1.00;;;;;;5070777;28;20191;-55
2022/06/17 08:14:43;;;;;;;2.30;2.03;;;22.70;1.00;;;;;;5070800;28;20175;-54
2022/06/17 08:17:14;;;;;;;5.60;2.20;;;22.90;1.00;;;;;;5070791;28;20317;-55
2022/06/17 08:19:41;;;;;;;2.33;1.90;;;23.20;1.00;;;;;;5070944;28;20441;-56
2022/06/17 08:22:07;;;;;;;2.50;1.73;;;23.50;1.00;;;;;;5070775;28;20784;-55
2022/06/17 08:24:33;;;;;;;3.70;1.87;;;23.70;1.00;;;;;;5070249;28;20476;-56
2022/06/17 08:26:58;;;;;;;2.73;1.93;;;23.90;1.00;;;;;;5054498;28;20478;-55
2022/06/17 08:29:26;;;;;;;2.93;1.60;;;23.60;1.00;;;;;;5050305;28;20212;-55
2022/06/17 08:31:52;;;;;;;3.63;1.60;;;23.30;1.00;;;;;;5050552;28;20180;-55
2022/06/17 08:34:18;;;;;;;2.00;1.80;;;23.40;1.00;;;;;;5050664;28;20438;-54
2022/06/17 08:36:44;;;;;;;4.03;1.90;;;23.40;1.00;;;;;;5050295;28;20495;-54
2022/06/17 08:39:13;;;;;;;2.30;2.10;;;23.60;1.00;;;;;;5050743;28;20188;-55
2022/06/17 08:42:04;;;;;;;4.50;2.77;;;23.80;1.00;;;;;;5058652;28;20997;-55
2022/06/17 08:44:29;;;;;;;3.80;1.43;;;24.30;1.00;;;;;;5069699;28;20449;-54
2022/06/17 08:47:04;;;;;;;4.17;2.10;;;24.20;1.00;;;;;;5050108;28;20985;-56
2022/06/17 08:50:00;;;;;;;2.03;1.60;;;24.10;1.00;;;;;;5049999;28;20203;-55
2022/06/17 08:52:44;;;;;;;1.50;1.40;;;24.10;1.00;;;;;;5050279;28;20434;-55
2022/06/17 08:55:48;;;;;;;2.40;1.60;;;24.50;1.00;;;;;;5063484;28;20923;-54
2022/06/17 08:58:21;;;;;;;3.33;1.40;;;24.70;1.00;;;;;;5065154;28;20463;-55
2022/06/17 09:01:14;;;;;;;3.93;1.67;;;24.60;1.00;;;;;;5049437;28;20951;-54
2022/06/17 09:03:58;;;;;;;1.90;1.13;;;23.90;1.00;;;;;;5065331;28;20465;-55
2022/06/17 09:06:37;;;;;;;2.90;1.97;;;23.80;1.00;;;;;;5058624;28;20904;-54
2022/06/17 09:09:32;;;;;;;2.60;1.23;;;24.10;1.00;;;;;;5049619;28;20984;-53
2022/06/17 09:12:01;;;;;;;2.20;1.90;;;24.30;1.00;;;;;;5049656;28;20435;-53
2022/06/17 09:14:56;;;;;;;1.80;1.57;;;24.60;1.00;;;;;;5049936;28;20976;-55
2022/06/17 09:17:37;;;;;;;2.27;2.03;;;25.40;1.00;;;;;;5050518;28;21009;-55
2022/06/17 09:20:06;;;;;;;4.03;1.70;;;25.50;1.00;;;;;;5048600;28;20430;-57
2022/06/17 09:22:36;;;;;;;2.30;1.37;;;25.30;1.00;;;;;;5049753;28;20442;-54
2022/06/17 09:25:06;;;;;;;1.37;1.27;;;24.60;1.00;;;;;;5056796;28;20419;-55
2022/06/17 09:27:36;;;;;;;2.90;1.70;;;24.80;1.00;;;;;;5061374;28;20483;-55
2022/06/17 09:30:22;;;;;;;4.60;1.63;;;25.10;1.00;;;;;;5058947;28;21029;-55
2022/06/17 09:33:22;;;;;;;3.00;1.60;;;25.20;1.00;;;;;;5047884;28;20442;-56
2022/06/17 09:35:58;;;;;;;5.13;1.67;;;25.60;1.00;;;;;;5049521;28;20529;-55
2022/06/17 09:38:44;;;;;;;1.83;1.43;;;25.60;1.00;;;;;;5049770;28;21082;-56
2022/06/17 09:41:36;;;;;;;2.13;1.50;;;25.60;1.00;;;;;;5049458;28;21279;-56
2022/06/17 09:44:08;;;;;;;2.43;1.20;;;25.50;1.00;;;;;;5049640;28;20427;-53
2022/06/17 09:46:48;;;;;;;2.30;1.67;;;25.60;1.00;;;;;;5059738;28;20438;-54
2022/06/17 09:49:13;;;;;;;2.53;1.80;;;25.50;1.00;;;;;;5069437;28;20872;-57
2022/06/17 09:51:43;;;;;;;5.20;1.80;;;25.10;1.00;;;;;;5068943;28;20544;-53
2022/06/17 09:54:33;;;;;;;2.03;1.20;;;24.70;1.00;;;;;;5069189;28;20214;-57
2022/06/17 09:57:18;;;;;;;2.30;1.97;;;24.80;1.00;;;;;;5064901;28;20453;-55
2022/06/17 10:00:06;;;;;;;2.17;1.40;;;25.10;1.00;;;;;;5052791;28;20487;-56
2022/06/17 10:02:43;;;;;;;3.93;2.00;;;24.80;1.00;;;;;;5052809;28;20450;-55
2022/06/17 10:05:16;;;;;;;3.07;1.67;;;24.90;1.00;;;;;;5053392;28;20931;-55
2022/06/17 10:08:02;;;;;;;2.20;1.30;;;25.20;1.00;;;;;;5053123;28;20765;-55
2022/06/17 10:10:47;;;;;;;2.40;1.63;;;25.40;1.00;;;;;;5070554;28;20461;-57
2022/06/17 10:13:52;;;;;;;1.93;1.27;;;25.60;1.00;;;;;;5065912;28;20534;-54
2022/06/17 10:19:47;;;;;;;1.60;1.07;;;25.30;1.00;;;;;;5053393;28;21057;-56
2022/06/17 10:22:19;;;;;;;2.60;1.57;;;25.40;1.00;;;;;;5062727;28;20438;-55
2022/06/17 10:25:17;;;;;;;4.00;1.53;;;25.80;1.00;;;;;;5053021;28;20462;-56
2022/06/17 10:27:47;;;;;;;2.20;1.67;;;26.00;1.00;;;;;;5052669;28;20525;-56
2022/06/17 10:30:19;;;;;;;2.70;1.60;;;26.40;1.00;;;;;;5057380;28;20465;-54
2022/06/17 10:32:49;;;;;;;1.73;1.30;;;26.30;1.00;;;;;;5057908;28;20433;-54
2022/06/17 10:35:29;;;;;;;3.37;1.70;;;25.40;1.00;;;;;;5072923;28;20463;-52
2022/06/17 10:38:01;;;;;;;2.00;1.30;;;25.30;1.00;;;;;;5072739;28;20425;-56
2022/06/17 10:40:30;;;;;;;2.90;1.40;;;25.30;1.00;;;;;;5055791;28;20450;-56
2022/06/17 10:42:59;;;;;;;3.37;1.50;;;25.30;1.00;;;;;;5058172;28;20492;-55
2022/06/17 10:45:25;;;;;;;1.80;1.47;;;24.90;1.00;;;;;;5072760;28;20483;-56
2022/06/17 10:47:54;;;;;;;1.77;1.53;;;25.00;1.00;;;;;;5056487;28;20447;-54
2022/06/17 10:50:22;;;;;;;4.00;1.30;;;25.10;1.00;;;;;;5052020;28;20983;-54
2022/06/17 10:52:51;;;;;;;3.90;1.53;;;25.20;1.00;;;;;;5052266;28;20468;-54
2022/06/17 10:55:45;;;;;;;3.60;1.50;;;25.10;1.00;;;;;;5052267;28;20446;-55
2022/06/17 10:58:19;;;;;;;1.73;1.00;;;25.10;1.00;;;;;;5049351;28;20445;-54
2022/06/17 11:00:54;;;;;;;2.07;1.40;;;25.30;1.00;;;;;;5052132;28;20442;-54
2022/06/17 11:03:41;;;;;;;4.60;1.30;;;25.20;1.00;;;;;;5054119;28;20513;-57
2022/06/17 11:06:13;;;;;;;1.73;1.40;;;25.10;1.00;;;;;;5059958;28;20536;-56
2022/06/17 11:08:54;;;;;;;5.90;1.63;;;25.20;1.00;;;;;;5054862;28;20441;-53
2022/06/17 11:14:30;;;;;;;2.40;1.30;;;25.90;1.00;;;;;;5062547;28;20429;-54
2022/06/17 11:16:56;;;;;;;2.63;1.70;;;26.00;1.00;;;;;;5071808;28;20429;-54
2022/06/17 11:19:24;;;;;;;4.13;1.30;;;26.00;1.00;;;;;;5056104;28;20419;-56
2022/06/17 11:21:57;;;;;;;3.67;1.33;;;25.70;1.00;;;;;;5051819;28;20184;-54
2022/06/17 11:24:33;;;;;;;2.00;1.67;;;25.90;1.00;;;;;;5049524;28;20427;-55
2022/06/17 11:27:05;;;;;;;3.37;1.33;;;25.90;1.00;;;;;;5070130;28;20433;-55
2022/06/17 11:29:41;;;;;;;2.67;1.83;;;25.80;1.00;;;;;;5071715;28;21012;-55
2022/06/17 11:32:26;;;;;;;2.40;1.60;;;25.60;1.00;;;;;;5071188;28;20445;-53
2022/06/17 11:35:15;;;;;;;1.67;1.10;;;25.60;1.00;;;;;;5071089;28;20469;-54
2022/06/17 11:37:41;;;;;;;2.00;1.57;;;25.90;1.00;;;;;;5071172;28;20966;-54
2022/06/17 11:40:19;;;;;;;3.83;1.40;;;26.00;1.00;;;;;;5071186;28;20448;-55
2022/06/17 11:42:54;;;;;;;2.27;1.50;;;26.20;1.00;;;;;;5071099;28;20183;-54
2022/06/17 11:45:42;;;;;;;1.33;1.20;;;25.90;1.00;;;;;;5071612;28;20425;-54
2022/06/17 11:48:14;;;;;;;3.83;1.67;;;26.00;1.00;;;;;;5052863;28;20415;-53
2022/06/17 11:50:58;;;;;;;4.17;1.57;;;26.30;1.00;;;;;;5051075;28;20468;-56
2022/06/17 11:53:25;;;;;;;2.27;1.30;;;26.10;1.00;;;;;;5070407;28;20902;-55
2022/06/17 11:55:51;;;;;;;3.30;1.30;;;26.10;1.00;;;;;;5070757;28;20419;-56
2022/06/17 11:58:19;;;;;;;2.23;1.60;;;26.30;1.00;;;;;;5071062;28;20423;-56
2022/06/17 12:00:53;;;;;;;1.80;1.50;;;26.40;1.00;;;;;;5070572;28;20444;-54
2022/06/17 12:03:29;;;;;;;1.97;1.30;;;26.50;1.00;;;;;;5070253;28;20936;-57
2022/06/17 12:06:00;;;;;;;1.40;1.27;;;26.50;1.00;;;;;;5070517;28;20800;-52
2022/06/17 12:08:33;;;;;;;2.70;1.60;;;26.40;1.00;;;;;;5067278;28;20449;-55
2022/06/17 12:11:10;;;;;;;1.80;1.23;;;26.70;1.00;;;;;;5064895;28;20476;-55
2022/06/17 12:13:51;;;;;;;2.40;1.50;;;26.70;1.00;;;;;;5050158;28;20787;-55
2022/06/17 12:16:24;;;;;;;2.03;1.40;;;26.80;1.00;;;;;;5050637;28;20409;-54
2022/06/17 12:18:54;;;;;;;1.90;1.47;;;26.80;1.00;;;;;;5051005;28;20924;-57
2022/06/17 12:21:29;;;;;;;1.50;1.40;;;26.80;1.00;;;;;;5050617;28;20784;-55
2022/06/17 12:24:17;;;;;;;3.50;1.50;;;26.50;1.00;;;;;;5050705;28;20441;-54
2022/06/17 12:27:01;;;;;;;2.90;1.10;;;26.60;1.00;;;;;;5055318;28;20556;-55
2022/06/17 12:29:44;;;;;;;1.50;1.40;;;26.60;1.00;;;;;;5050378;28;21160;-56
2022/06/17 12:32:14;;;;;;;1.73;1.37;;;26.80;1.00;;;;;;5050803;28;20792;-53
2022/06/17 12:34:53;;;;;;;3.00;1.33;;;26.70;1.00;;;;;;5048536;28;20416;-53
2022/06/17 12:37:40;;;;;;;1.40;1.30;;;26.70;1.00;;;;;;5049926;28;20486;-56
2022/06/17 12:40:15;;;;;;;3.67;2.23;;;26.90;1.00;;;;;;5050861;28;20439;-54
2022/06/17 12:43:00;;;;;;;1.73;1.63;;;26.90;1.00;;;;;;5050210;28;20434;-56
2022/06/17 12:45:32;;;;;;;1.60;1.50;;;26.70;1.00;;;;;;5050200;28;21009;-53
2022/06/17 12:48:11;;;;;;;2.40;2.03;;;26.90;1.00;;;;;;5050519;28;20857;-54
2022/06/17 12:54:07;;;;;;;5.93;1.87;;;26.90;1.00;;;;;;5062824;28;20639;-56
2022/06/17 12:56:41;;;;;;;3.03;1.27;;;27.00;1.00;;;;;;5068692;28;20465;-55
2022/06/17 12:59:44;;;;;;;2.70;1.70;;;27.00;1.00;;;;;;5062237;28;20450;-53
2022/06/17 13:02:13;;;;;;;1.43;1.33;;;27.10;1.00;;;;;;5058141;28;20437;-54
2022/06/17 13:04:56;;;;;;;2.87;1.47;;;27.30;1.00;;;;;;5066143;28;20940;-55
2022/06/17 13:07:31;;;;;;;1.67;1.30;;;27.10;1.00;;;;;;5048482;28;20444;-54
2022/06/17 13:10:39;;;;;;;1.93;1.73;;;26.90;1.00;;;;;;5050017;28;21097;-55
2022/06/17 13:12:52;;;;;;;2.80;1.20;;;27.00;1.00;;;;;;5049689;28;20437;-55
2022/06/17 13:15:23;;;;;;;2.77;1.40;;;27.10;1.00;;;;;;5047463;28;20442;-54
2022/06/17 13:18:24;;;;;;;3.40;1.60;;;26.80;1.00;;;;;;5049397;28;20437;-55
2022/06/17 13:21:02;;;;;;;2.07;1.17;;;26.60;1.00;;;;;;5038475;28;20500;-54
2022/06/17 13:23:37;;;;;;;2.20;1.07;;;26.80;1.00;;;;;;5050328;28;20426;-55
2022/06/17 13:26:33;;;;;;;2.73;1.30;;;26.90;1.00;;;;;;5062353;28;20403;-53
2022/06/17 13:29:18;;;;;;;2.43;1.10;;;27.10;1.00;;;;;;5056862;28;20427;-54
2022/06/17 13:31:48;;;;;;;1.53;1.07;;;27.10;1.00;;;;;;5049404;28;20430;-55
2022/06/17 13:34:21;;;;;;;1.73;1.10;;;26.70;1.00;;;;;;5065470;28;20437;-52
2022/06/17 13:36:58;;;;;;;2.13;1.40;;;27.10;1.00;;;;;;5073461;28;20486;-55
2022/06/17 13:39:28;;;;;;;3.17;1.53;;;27.40;1.00;;;;;;5073477;28;20441;-55
2022/06/17 13:42:04;;;;;;;2.20;1.20;;;27.30;1.00;;;;;;5073643;28;20429;-55